createdAt,value
2022-07-31T00:00:20.270Z,101652.69
2022-07-31T00:02:47.832Z,101659.03
2022-07-31T00:05:15.360Z,101655.91
2022-07-31T00:07:42.929Z,101661.22
2022-07-31T00:10:10.979Z,101661.22
2022-07-31T00:12:38.733Z,101661.81
2022-07-31T00:15:07.907Z,101663.44
2022-07-31T00:17:38.341Z,101657.31
2022-07-31T00:20:06.729Z,101653.84
2022-07-31T00:22:35.454Z,101661.69
2022-07-31T00:25:02.965Z,101618.81
2022-07-31T00:27:30.438Z,101653.06
2022-07-31T00:29:57.909Z,101651.00
2022-07-31T00:32:25.337Z,101643.50
2022-07-31T00:34:54.208Z,101639.50
2022-07-31T00:37:21.831Z,101634.03
2022-07-31T00:39:49.505Z,101632.28
2022-07-31T00:42:20.307Z,101624.50
2022-07-31T00:44:48.433Z,101616.09
2022-07-31T00:47:16.292Z,101615.22
2022-07-31T00:49:43.826Z,101606.66
2022-07-31T00:52:13.090Z,101614.41
2022-07-31T00:54:41.163Z,101612.84
2022-07-31T00:57:08.809Z,101612.84
2022-07-31T00:59:36.290Z,101610.72
2022-07-31T01:02:03.762Z,101604.53
2022-07-31T01:04:31.546Z,101601.53
2022-07-31T01:07:00.764Z,101600.13
2022-07-31T01:09:30.102Z,101603.72
2022-07-31T01:12:01.119Z,101598.22
2022-07-31T01:14:30.437Z,101604.75
2022-07-31T01:17:00.220Z,101601.97
2022-07-31T01:19:39.632Z,101605.56
2022-07-31T01:22:33.097Z,101604.16
2022-07-31T01:25:08.730Z,101595.56
2022-07-31T01:27:49.470Z,101602.63
2022-07-31T01:30:19.303Z,101597.41
2022-07-31T01:32:49.158Z,101601.97
2022-07-31T01:35:18.650Z,101594.50
2022-07-31T01:37:48.358Z,101596.81
2022-07-31T01:40:17.860Z,101599.44
2022-07-31T01:42:48.763Z,101598.22
2022-07-31T01:45:16.701Z,101594.16
2022-07-31T01:47:46.008Z,101596.00
2022-07-31T01:50:43.070Z,101596.81
2022-07-31T01:53:01.858Z,101592.31
2022-07-31T01:55:30.148Z,101596.81
2022-07-31T01:58:18.998Z,101595.25
2022-07-31T02:00:47.373Z,101599.75
2022-07-31T02:03:16.347Z,101595.09
2022-07-31T02:05:45.350Z,101592.81
2022-07-31T02:08:13.591Z,101589.00
2022-07-31T02:10:41.635Z,101591.63
2022-07-31T02:13:09.248Z,101602.53
2022-07-31T02:15:37.319Z,101588.69
2022-07-31T02:18:05.670Z,101588.84
2022-07-31T02:20:34.780Z,101580.31
2022-07-31T02:23:02.519Z,101588.69
2022-07-31T02:25:30.549Z,101581.72
2022-07-31T02:27:59.284Z,101582.97
2022-07-31T02:30:39.097Z,101582.31
2022-07-31T02:33:09.191Z,101579.88
2022-07-31T02:35:38.974Z,101575.81
2022-07-31T02:38:23.017Z,101580.09
2022-07-31T02:40:52.007Z,101579.56
2022-07-31T02:43:20.202Z,101572.81
2022-07-31T02:45:48.134Z,101576.53
2022-07-31T02:48:15.694Z,101568.56
2022-07-31T02:50:46.097Z,101575.53
2022-07-31T02:53:13.714Z,101571.03
2022-07-31T02:55:41.265Z,101556.41
2022-07-31T02:58:08.935Z,101557.31
2022-07-31T03:00:36.355Z,101562.97
2022-07-31T03:03:04.033Z,101519.69
2022-07-31T03:05:32.272Z,101553.50
2022-07-31T03:08:01.038Z,101549.06
2022-07-31T03:10:28.637Z,101539.38
2022-07-31T03:12:56.584Z,101545.09
2022-07-31T03:15:26.719Z,101546.84
2022-07-31T03:17:54.666Z,101551.91
2022-07-31T03:20:22.580Z,101549.06
2022-07-31T03:22:50.193Z,101542.94
2022-07-31T03:25:21.270Z,101540.53
2022-07-31T03:27:56.403Z,101540.72
2022-07-31T03:30:25.102Z,101536.16
2022-07-31T03:32:53.958Z,101532.06
2022-07-31T03:35:21.428Z,101539.59
2022-07-31T03:37:48.836Z,101520.66
2022-07-31T03:40:16.374Z,101531.22
2022-07-31T03:42:45.309Z,101532.88
2022-07-31T03:45:13.475Z,101535.69
2022-07-31T03:47:41.059Z,101534.34
2022-07-31T03:50:09.422Z,101532.16
2022-07-31T03:52:37.037Z,101527.88
2022-07-31T03:55:04.838Z,101532.94
2022-07-31T03:57:34.196Z,101533.50
2022-07-31T04:00:03.889Z,101532.63
2022-07-31T04:02:31.815Z,101527.06
2022-07-31T04:05:00.093Z,101523.22
2022-07-31T04:07:27.748Z,101526.53
2022-07-31T04:09:55.196Z,101526.38
2022-07-31T04:12:22.692Z,101533.81
2022-07-31T04:14:50.135Z,101530.06
2022-07-31T04:17:18.945Z,101544.03
2022-07-31T04:19:46.490Z,101544.63
2022-07-31T04:22:13.958Z,101542.84
2022-07-31T04:24:41.397Z,101537.88
2022-07-31T04:27:12.888Z,101523.53
2022-07-31T04:29:40.569Z,101534.53
2022-07-31T04:32:08.317Z,101525.91
2022-07-31T04:34:37.227Z,101524.03
2022-07-31T04:37:04.973Z,101527.13
2022-07-31T04:39:32.437Z,101537.06
2022-07-31T04:41:59.990Z,101531.38
2022-07-31T04:44:27.532Z,101529.72
2022-07-31T04:46:59.195Z,101527.78
2022-07-31T04:49:26.766Z,101531.97
2022-07-31T04:51:55.656Z,101532.50
2022-07-31T04:54:23.152Z,101516.69
2022-07-31T04:56:50.629Z,101520.78
2022-07-31T04:59:20.147Z,101514.13
2022-07-31T05:01:48.431Z,101518.53
2022-07-31T05:04:16.535Z,101509.47
2022-07-31T05:06:45.296Z,101509.88
2022-07-31T05:09:18.744Z,101508.59
2022-07-31T05:11:47.566Z,101519.84
2022-07-31T05:14:16.533Z,101516.75
2022-07-31T05:16:44.089Z,101512.00
2022-07-31T05:19:14.526Z,101505.34
2022-07-31T05:21:53.407Z,101506.84
2022-07-31T05:24:32.985Z,101512.94
2022-07-31T05:27:01.741Z,101518.31
2022-07-31T05:29:29.306Z,101506.09
2022-07-31T05:31:59.689Z,101518.84
2022-07-31T05:34:37.504Z,101517.84
2022-07-31T05:37:05.001Z,101520.75
2022-07-31T05:39:34.093Z,101527.53
2022-07-31T05:42:01.948Z,101524.13
2022-07-31T05:44:29.607Z,101529.81
2022-07-31T05:49:26.659Z,101518.75
2022-07-31T05:51:55.036Z,101514.47
2022-07-31T05:54:23.197Z,101518.75
2022-07-31T05:56:51.997Z,101520.66
2022-07-31T05:59:19.925Z,101517.03
2022-07-31T06:01:47.516Z,101523.44
2022-07-31T06:04:15.018Z,101531.00
2022-07-31T06:06:42.442Z,101520.97
2022-07-31T06:09:09.867Z,101518.91
2022-07-31T06:11:37.301Z,101521.47
2022-07-31T06:14:06.139Z,101508.88
2022-07-31T06:16:33.624Z,101503.63
2022-07-31T06:19:01.163Z,101512.28
2022-07-31T06:21:30.827Z,101506.31
2022-07-31T06:23:58.540Z,101508.84
2022-07-31T06:26:27.589Z,101512.34
2022-07-31T06:28:55.363Z,101509.03
2022-07-31T06:31:24.192Z,101500.00
2022-07-31T06:33:52.686Z,101503.69
2022-07-31T06:36:20.370Z,101509.72
2022-07-31T06:38:47.821Z,101508.16
2022-07-31T06:41:35.447Z,101509.22
2022-07-31T06:44:03.053Z,101510.25
2022-07-31T06:46:31.824Z,101514.16
2022-07-31T06:48:59.342Z,101512.97
2022-07-31T06:51:31.636Z,101503.41
2022-07-31T06:53:59.526Z,101515.13
2022-07-31T06:56:26.999Z,101505.91
2022-07-31T06:58:55.143Z,101513.72
2022-07-31T07:01:22.675Z,101516.97
2022-07-31T07:03:51.548Z,101518.38
2022-07-31T07:06:19.460Z,101533.16
2022-07-31T07:08:47.033Z,101527.13
2022-07-31T07:11:14.537Z,101524.38
2022-07-31T07:13:45.569Z,101507.69
2022-07-31T07:16:14.323Z,101510.06
2022-07-31T07:18:42.963Z,101519.97
2022-07-31T07:21:12.233Z,101514.72
2022-07-31T07:23:39.748Z,101512.19
2022-07-31T07:26:07.262Z,101501.09
2022-07-31T07:28:34.906Z,101505.84
2022-07-31T07:31:02.748Z,101504.19
2022-07-31T07:33:40.217Z,101502.34
2022-07-31T07:36:22.909Z,101493.75
2022-07-31T07:38:53.515Z,101491.47
2022-07-31T07:41:23.298Z,101489.13
2022-07-31T07:43:51.580Z,101485.09
2022-07-31T07:46:19.804Z,101488.78
2022-07-31T07:48:47.365Z,101486.03
2022-07-31T07:51:14.962Z,101494.59
2022-07-31T07:53:42.414Z,101492.66
2022-07-31T07:56:11.294Z,101498.41
2022-07-31T07:58:38.719Z,101494.34
2022-07-31T08:01:06.233Z,101501.19
2022-07-31T08:03:51.324Z,101497.09
2022-07-31T08:06:20.186Z,101493.31
2022-07-31T08:08:47.828Z,101504.00
2022-07-31T08:11:17.237Z,101514.16
2022-07-31T08:13:49.742Z,101511.94
2022-07-31T08:16:17.940Z,101506.97
2022-07-31T08:18:45.438Z,101506.38
2022-07-31T08:21:12.921Z,101507.06
2022-07-31T08:23:40.376Z,101515.09
2022-07-31T08:26:08.511Z,101508.28
2022-07-31T08:28:37.528Z,101503.94
2022-07-31T08:31:04.968Z,101500.38
2022-07-31T08:33:33.063Z,101491.09
2022-07-31T08:36:00.820Z,101495.25
2022-07-31T08:38:28.674Z,101501.66
2022-07-31T08:40:56.228Z,101496.91
2022-07-31T08:44:02.103Z,101497.81
2022-07-31T08:46:13.729Z,101503.34
2022-07-31T08:48:42.661Z,101454.63
2022-07-31T08:51:12.131Z,101494.59
2022-07-31T08:53:40.439Z,101498.97
2022-07-31T08:56:08.986Z,101493.69
2022-07-31T08:58:39.662Z,101499.53
2022-07-31T09:01:08.343Z,101494.97
2022-07-31T09:03:37.310Z,101489.88
2022-07-31T09:06:05.004Z,101497.16
2022-07-31T09:08:32.675Z,101493.78
2022-07-31T09:11:04.215Z,101480.63
2022-07-31T09:13:34.716Z,101483.16
2022-07-31T09:16:02.723Z,101493.34
2022-07-31T09:18:30.367Z,101504.16
2022-07-31T09:21:00.360Z,101498.41
2022-07-31T09:23:29.996Z,101502.53
2022-07-31T09:25:58.775Z,101494.31
2022-07-31T09:28:33.575Z,101489.38
2022-07-31T09:31:01.066Z,101483.44
2022-07-31T09:33:29.540Z,101480.84
2022-07-31T09:35:57.545Z,101476.25
2022-07-31T09:38:32.377Z,101480.28
2022-07-31T09:41:26.814Z,101475.66
2022-07-31T09:43:59.662Z,101478.34
2022-07-31T09:46:28.405Z,101481.44
2022-07-31T09:49:00.211Z,101480.75
2022-07-31T09:51:38.151Z,101478.09
2022-07-31T09:54:07.043Z,101475.91
2022-07-31T09:56:34.773Z,101474.44
2022-07-31T09:59:02.935Z,101477.09
2022-07-31T10:01:31.844Z,101471.41
2022-07-31T10:04:01.314Z,101476.03
2022-07-31T10:06:32.052Z,101482.59
2022-07-31T10:09:01.512Z,101478.75
2022-07-31T10:11:31.097Z,101481.53
2022-07-31T10:14:01.581Z,101478.88
2022-07-31T10:16:30.651Z,101472.94
2022-07-31T10:19:00.488Z,101473.81
2022-07-31T10:21:30.663Z,101468.16
2022-07-31T10:23:59.514Z,101469.75
2022-07-31T10:26:57.414Z,101470.75
2022-07-31T10:29:17.759Z,101478.00
2022-07-31T10:31:46.544Z,101479.63
2022-07-31T10:34:14.517Z,101474.22
2022-07-31T10:36:44.750Z,101472.00
2022-07-31T10:39:18.258Z,101476.38
2022-07-31T10:41:48.025Z,101470.59
2022-07-31T10:44:20.164Z,101478.91
2022-07-31T10:46:47.581Z,101472.59
2022-07-31T10:49:15.293Z,101474.50
2022-07-31T10:51:49.460Z,101472.50
2022-07-31T10:54:17.056Z,101466.22
2022-07-31T10:56:47.553Z,101465.81
2022-07-31T10:59:15.146Z,101463.88
2022-07-31T11:01:53.181Z,101464.03
2022-07-31T11:04:27.342Z,101457.41
2022-07-31T11:06:54.800Z,101452.41
2022-07-31T11:09:26.009Z,101455.44
2022-07-31T11:11:53.880Z,101453.47
2022-07-31T11:14:34.754Z,101461.25
2022-07-31T11:17:04.517Z,101464.03
2022-07-31T11:19:41.423Z,101455.88
2022-07-31T11:22:32.034Z,101457.06
2022-07-31T11:25:00.689Z,101454.47
2022-07-31T11:27:31.906Z,101450.91
2022-07-31T11:30:09.066Z,101463.03
2022-07-31T11:32:41.670Z,101454.72
2022-07-31T11:35:09.382Z,101458.31
2022-07-31T11:37:56.466Z,101464.31
2022-07-31T11:40:27.553Z,101458.47
2022-07-31T11:43:24.355Z,101463.47
2022-07-31T11:45:48.068Z,101455.88
2022-07-31T11:48:19.262Z,101455.34
2022-07-31T11:50:47.690Z,101452.75
2022-07-31T11:53:17.127Z,101458.03
2022-07-31T11:55:45.647Z,101456.75
2022-07-31T11:58:13.119Z,101457.22
2022-07-31T12:00:40.565Z,101454.94
2022-07-31T12:03:09.603Z,101457.41
2022-07-31T12:05:45.700Z,101463.53
2022-07-31T12:08:13.451Z,101447.44
2022-07-31T12:10:42.196Z,101453.56
2022-07-31T12:13:16.131Z,101457.22
2022-07-31T12:15:54.322Z,101458.91
2022-07-31T12:18:21.929Z,101464.41
2022-07-31T12:20:54.956Z,101464.94
2022-07-31T12:23:38.678Z,101451.97
2022-07-31T12:26:08.948Z,101454.56
2022-07-31T12:28:36.445Z,101442.66
2022-07-31T12:31:03.938Z,101446.84
2022-07-31T12:33:40.910Z,101434.16
2022-07-31T12:36:14.227Z,101426.44
2022-07-31T12:38:47.712Z,101429.53
2022-07-31T12:41:16.011Z,101431.03
2022-07-31T12:43:51.969Z,101427.78
2022-07-31T12:46:20.331Z,101430.38
2022-07-31T12:48:47.838Z,101430.78
2022-07-31T12:51:19.823Z,101423.41
2022-07-31T12:53:47.911Z,101426.88
2022-07-31T12:56:15.348Z,101421.94
2022-07-31T12:58:42.793Z,101423.06
2022-07-31T13:01:10.310Z,101417.78
2022-07-31T13:03:45.438Z,101422.84
2022-07-31T13:06:16.796Z,101418.69
2022-07-31T13:08:45.515Z,101422.75
2022-07-31T13:11:12.976Z,101428.38
2022-07-31T13:13:40.442Z,101429.09
2022-07-31T13:16:08.115Z,101431.47
2022-07-31T13:18:35.751Z,101433.78
2022-07-31T13:21:03.201Z,101433.41
2022-07-31T13:23:31.673Z,101433.78
2022-07-31T13:26:01.238Z,101426.91
2022-07-31T13:28:28.733Z,101429.06
2022-07-31T13:30:56.217Z,101392.22
2022-07-31T13:33:23.665Z,101437.22
2022-07-31T13:35:51.102Z,101425.94
2022-07-31T13:38:21.745Z,101428.03
2022-07-31T13:41:06.599Z,101426.56
2022-07-31T13:43:35.531Z,101421.97
2022-07-31T13:46:04.025Z,101429.31
2022-07-31T13:48:31.527Z,101428.69
2022-07-31T13:50:58.943Z,101425.28
2022-07-31T13:53:28.166Z,101426.22
2022-07-31T13:55:56.575Z,101428.03
2022-07-31T13:58:24.492Z,101420.19
2022-07-31T14:00:53.333Z,101425.66
2022-07-31T14:03:21.397Z,101427.41
2022-07-31T14:05:48.993Z,101431.41
2022-07-31T14:08:32.780Z,101435.66
2022-07-31T14:11:04.584Z,101420.66
2022-07-31T14:13:42.340Z,101418.91
2022-07-31T14:16:11.446Z,101416.59
2022-07-31T14:18:43.958Z,101434.19
2022-07-31T14:21:11.375Z,101384.84
2022-07-31T14:23:44.725Z,101427.16
2022-07-31T14:26:12.174Z,101421.97
2022-07-31T14:28:41.861Z,101420.53
2022-07-31T14:31:11.251Z,101426.44
2022-07-31T14:33:40.034Z,101434.13
2022-07-31T14:36:10.392Z,101435.81
2022-07-31T14:38:37.838Z,101427.56
2022-07-31T14:41:08.239Z,101431.09
2022-07-31T14:43:35.719Z,101432.81
2022-07-31T14:46:03.155Z,101425.13
2022-07-31T14:48:33.444Z,101423.63
2022-07-31T14:51:02.239Z,101429.22
2022-07-31T14:53:29.712Z,101425.66
2022-07-31T14:56:03.615Z,101423.72
2022-07-31T14:58:31.543Z,101426.97
2022-07-31T15:01:01.726Z,101420.69
2022-07-31T15:03:29.149Z,101427.84
2022-07-31T15:06:41.705Z,101422.81
2022-07-31T15:08:45.444Z,101433.22
2022-07-31T15:11:14.846Z,101429.59
2022-07-31T15:13:43.898Z,101426.22
2022-07-31T15:16:11.332Z,101428.28
2022-07-31T15:18:38.804Z,101436.50
2022-07-31T15:21:06.246Z,101429.88
2022-07-31T15:23:35.816Z,101434.38
2022-07-31T15:26:05.164Z,101414.47
2022-07-31T15:28:32.853Z,101431.09
2022-07-31T15:31:01.314Z,101430.75
2022-07-31T15:33:29.068Z,101424.19
2022-07-31T15:35:56.530Z,101427.69
2022-07-31T15:38:23.957Z,101424.50
2022-07-31T15:40:51.491Z,101403.00
2022-07-31T15:43:20.580Z,101424.28
2022-07-31T15:45:48.044Z,101430.94
2022-07-31T15:48:15.502Z,101429.06
2022-07-31T15:50:44.840Z,101426.41
2022-07-31T15:53:12.370Z,101425.38
2022-07-31T15:55:39.820Z,101429.13
2022-07-31T15:58:07.238Z,101417.34
2022-07-31T16:00:36.087Z,101417.13
2022-07-31T16:03:04.733Z,101414.00
2022-07-31T16:05:37.127Z,101419.78
2022-07-31T16:08:31.640Z,101409.75
2022-07-31T16:10:55.046Z,101415.63
2022-07-31T16:13:22.898Z,101411.00
2022-07-31T16:15:51.797Z,101403.75
2022-07-31T16:18:19.262Z,101404.44
2022-07-31T16:20:46.735Z,101407.47
2022-07-31T16:23:14.192Z,101399.97
2022-07-31T16:25:41.670Z,101407.09
2022-07-31T16:28:09.105Z,101397.25
2022-07-31T16:30:36.625Z,101401.75
2022-07-31T16:33:05.447Z,101396.09
2022-07-31T16:35:35.953Z,101393.09
2022-07-31T16:38:03.458Z,101407.34
2022-07-31T16:40:32.116Z,101403.69
2022-07-31T16:43:01.688Z,101395.91
2022-07-31T16:45:29.735Z,101400.31
2022-07-31T16:47:57.447Z,101394.06
2022-07-31T16:50:26.578Z,101392.59
2022-07-31T16:52:55.069Z,101394.06
2022-07-31T16:55:51.775Z,101391.25
2022-07-31T16:58:11.557Z,101391.78
2022-07-31T17:00:39.371Z,101385.44
2022-07-31T17:03:07.151Z,101394.28
2022-07-31T17:05:58.756Z,101397.16
2022-07-31T17:08:26.236Z,101405.00
2022-07-31T17:10:54.795Z,101401.81
2022-07-31T17:13:24.598Z,101412.38
2022-07-31T17:15:52.148Z,101407.09
2022-07-31T17:18:24.830Z,101413.63
2022-07-31T17:20:52.414Z,101410.16
2022-07-31T17:23:33.203Z,101408.91
2022-07-31T17:26:08.556Z,101400.59
2022-07-31T17:28:36.492Z,101407.50
2022-07-31T17:31:03.925Z,101408.75
2022-07-31T17:33:58.507Z,101415.38
2022-07-31T17:36:18.839Z,101408.00
2022-07-31T17:38:47.593Z,101413.66
2022-07-31T17:41:24.901Z,101407.44
2022-07-31T17:43:53.549Z,101405.66
2022-07-31T17:46:22.016Z,101408.50
2022-07-31T17:48:57.438Z,101416.38
2022-07-31T17:51:24.936Z,101420.38
2022-07-31T17:53:55.237Z,101418.53
2022-07-31T17:56:26.957Z,101420.44
2022-07-31T17:58:55.402Z,101414.56
2022-07-31T18:01:28.475Z,101415.88
2022-07-31T18:03:56.080Z,101420.63
2022-07-31T18:06:23.562Z,101418.53
2022-07-31T18:08:51.044Z,101415.78
2022-07-31T18:11:21.317Z,101426.25
2022-07-31T18:13:54.183Z,101427.72
2022-07-31T18:16:24.807Z,101430.28
2022-07-31T18:18:54.441Z,101422.81
2022-07-31T18:21:22.223Z,101426.53
2022-07-31T18:23:51.847Z,101434.22
2022-07-31T18:26:20.718Z,101391.84
2022-07-31T18:28:48.152Z,101429.94
2022-07-31T18:31:32.188Z,101430.59
2022-07-31T18:34:03.253Z,101441.78
2022-07-31T18:36:30.692Z,101441.84
2022-07-31T18:38:58.421Z,101451.72
2022-07-31T18:41:27.448Z,101447.72
2022-07-31T18:43:54.978Z,101451.94
2022-07-31T18:46:23.642Z,101453.91
2022-07-31T18:48:55.434Z,101451.47
2022-07-31T18:51:23.887Z,101456.50
2022-07-31T18:53:51.503Z,101456.44
2022-07-31T18:56:22.069Z,101451.13
2022-07-31T18:58:53.048Z,101457.06
2022-07-31T19:01:20.768Z,101454.53
2022-07-31T19:03:48.265Z,101454.22
2022-07-31T19:06:15.717Z,101454.22
2022-07-31T19:08:44.248Z,101455.41
2022-07-31T19:11:12.153Z,101454.22
2022-07-31T19:13:39.675Z,101454.66
2022-07-31T19:16:11.263Z,101452.88
2022-07-31T19:18:40.115Z,101462.22
2022-07-31T19:21:17.729Z,101466.75
2022-07-31T19:23:51.184Z,101455.19
2022-07-31T19:26:18.715Z,101466.56
2022-07-31T19:28:46.235Z,101461.78
2022-07-31T19:31:15.012Z,101469.50
2022-07-31T19:33:42.485Z,101460.09
2022-07-31T19:36:10.791Z,101469.44
2022-07-31T19:38:38.300Z,101472.75
2022-07-31T19:41:05.770Z,101477.03
2022-07-31T19:43:33.502Z,101476.72
2022-07-31T19:46:11.430Z,101485.25
2022-07-31T19:48:44.144Z,101484.38
2022-07-31T19:51:12.137Z,101488.22
2022-07-31T19:53:39.671Z,101485.63
2022-07-31T19:56:09.747Z,101496.59
2022-07-31T19:58:37.974Z,101499.97
2022-07-31T20:01:08.117Z,101503.03
2022-07-31T20:03:36.163Z,101497.84
2022-07-31T20:06:06.435Z,101504.91
2022-07-31T20:08:34.099Z,101504.53
2022-07-31T20:11:03.508Z,101501.88
2022-07-31T20:13:31.670Z,101508.16
2022-07-31T20:16:00.968Z,101505.72
2022-07-31T20:18:29.371Z,101509.47
2022-07-31T20:20:58.184Z,101507.09
2022-07-31T20:23:27.287Z,101511.44
2022-07-31T20:25:54.923Z,101509.53
2022-07-31T20:28:22.503Z,101520.34
2022-07-31T20:30:56.323Z,101512.03
2022-07-31T20:33:23.969Z,101513.59
2022-07-31T20:35:51.505Z,101522.56
2022-07-31T20:38:19.095Z,101512.69
2022-07-31T20:40:53.940Z,101518.09
2022-07-31T20:43:23.013Z,101527.97
2022-07-31T20:45:50.514Z,101520.63
2022-07-31T20:48:18.689Z,101520.63
2022-07-31T20:50:49.161Z,101529.72
2022-07-31T20:53:16.621Z,101530.41
2022-07-31T20:55:46.991Z,101526.69
2022-07-31T20:58:18.418Z,101529.13
2022-07-31T21:00:47.360Z,101534.78
2022-07-31T21:03:18.474Z,101531.94
2022-07-31T21:05:46.164Z,101542.75
2022-07-31T21:08:13.644Z,101539.25
2022-07-31T21:10:41.127Z,101542.00
2022-07-31T21:13:08.721Z,101545.16
2022-07-31T21:15:41.595Z,101542.47
2022-07-31T21:18:10.916Z,101549.78
2022-07-31T21:20:51.287Z,101546.09
2022-07-31T21:23:20.991Z,101542.63
2022-07-31T21:25:48.578Z,101546.09
2022-07-31T21:28:16.264Z,101548.75
2022-07-31T21:30:45.300Z,101545.91
2022-07-31T21:33:13.032Z,101550.44
2022-07-31T21:35:40.798Z,101558.63
2022-07-31T21:38:10.399Z,101549.28
2022-07-31T21:40:39.779Z,101549.97
2022-07-31T21:43:07.591Z,101547.81
2022-07-31T21:45:43.386Z,101553.66
2022-07-31T21:48:20.748Z,101555.34
2022-07-31T21:50:48.485Z,101552.69
2022-07-31T21:53:15.872Z,101552.50
2022-07-31T21:55:43.373Z,101561.44
2022-07-31T21:58:10.875Z,101566.19
2022-07-31T22:00:38.646Z,101566.28
2022-07-31T22:03:06.196Z,101570.00
2022-07-31T22:05:53.183Z,101567.91
2022-07-31T22:08:20.755Z,101572.28
2022-07-31T22:10:48.308Z,101572.22
2022-07-31T22:13:15.788Z,101565.31
2022-07-31T22:15:51.458Z,101567.34
2022-07-31T22:18:28.217Z,101581.56
2022-07-31T22:20:57.547Z,101571.41
2022-07-31T22:23:25.433Z,101568.16
2022-07-31T22:25:52.905Z,101573.44
2022-07-31T22:28:20.995Z,101570.88
2022-07-31T22:30:48.870Z,101574.47
2022-07-31T22:33:16.358Z,101575.78
2022-07-31T22:35:43.872Z,101571.41
2022-07-31T22:38:12.772Z,101566.53
2022-07-31T22:40:40.475Z,101569.06
2022-07-31T22:44:14.159Z,101564.84
2022-07-31T22:46:00.841Z,101569.03
2022-07-31T22:48:28.795Z,101565.50
2022-07-31T22:50:56.349Z,101573.22
2022-07-31T22:53:25.551Z,101575.53
2022-07-31T22:55:53.667Z,101578.28
2022-07-31T22:58:21.292Z,101582.78
2022-07-31T23:00:49.191Z,101583.63
2022-07-31T23:03:17.220Z,101547.66
2022-07-31T23:06:28.125Z,101588.16
2022-07-31T23:08:33.564Z,101593.25
2022-07-31T23:11:00.978Z,101601.00
2022-07-31T23:13:28.425Z,101599.38
2022-07-31T23:15:55.855Z,101598.78
2022-07-31T23:18:23.518Z,101606.09
2022-07-31T23:20:50.971Z,101616.69
2022-07-31T23:23:18.411Z,101606.69
2022-07-31T23:25:47.213Z,101608.53
2022-07-31T23:28:14.725Z,101611.28
2022-07-31T23:30:42.228Z,101606.56
2022-07-31T23:33:09.656Z,101614.22
2022-07-31T23:35:37.161Z,101605.44
2022-07-31T23:38:04.592Z,101606.22
2022-07-31T23:40:32.103Z,101599.19
2022-07-31T23:42:59.907Z,101602.84
2022-07-31T23:45:27.418Z,101609.00
2022-07-31T23:47:55.161Z,101605.06
2022-07-31T23:50:26.594Z,101611.38
2022-07-31T23:52:54.072Z,101609.97
2022-07-31T23:55:21.674Z,101608.66
2022-07-31T23:57:49.169Z,101606.09
